sensor_id;sensor_type;location;lat;lon;timestamp;pressure;altitude;pressure_sealevel;temperature
78961;BMP280;68362;45.970;12.646;2023-07-20T00:00:51;100578.19;;;22.29
78961;BMP280;68362;45.970;12.646;2023-07-20T00:02:05;100584.31;;;22.29
78961;BMP280;68362;45.970;12.646;2023-07-20T00:03:13;100582.47;;;22.38
78961;BMP280;68362;45.970;12.646;2023-07-20T00:04:18;100580.47;;;22.44
78961;BMP280;68362;45.970;12.646;2023-07-20T00:05:21;100578.91;;;22.43
78961;BMP280;68362;45.970;12.646;2023-07-20T00:06:26;100578.47;;;22.49
78961;BMP280;68362;45.970;12.646;2023-07-20T00:07:29;100579.97;;;22.33
78961;BMP280;68362;45.970;12.646;2023-07-20T00:08:31;100577.28;;;22.33
78961;BMP280;68362;45.970;12.646;2023-07-20T00:09:33;100575.81;;;22.27
78961;BMP280;68362;45.970;12.646;2023-07-20T00:10:35;100580.00;;;22.42
78961;BMP280;68362;45.970;12.646;2023-07-20T00:11:38;100583.50;;;22.51
78961;BMP280;68362;45.970;12.646;2023-07-20T00:12:40;100582.22;;;22.48
78961;BMP280;68362;45.970;12.646;2023-07-20T00:13:43;100581.34;;;22.31
78961;BMP280;68362;45.970;12.646;2023-07-20T00:14:44;100592.53;;;22.33
78961;BMP280;68362;45.970;12.646;2023-07-20T00:15:47;100585.22;;;22.47
78961;BMP280;68362;45.970;12.646;2023-07-20T00:16:52;100590.94;;;22.54
78961;BMP280;68362;45.970;12.646;2023-07-20T00:17:58;100589.16;;;22.49
78961;BMP280;68362;45.970;12.646;2023-07-20T00:19:00;100582.13;;;22.53
78961;BMP280;68362;45.970;12.646;2023-07-20T00:20:02;100583.19;;;22.52
78961;BMP280;68362;45.970;12.646;2023-07-20T00:21:06;100589.56;;;22.65
78961;BMP280;68362;45.970;12.646;2023-07-20T00:22:09;100592.72;;;22.67
78961;BMP280;68362;45.970;12.646;2023-07-20T00:23:11;100594.78;;;22.70
78961;BMP280;68362;45.970;12.646;2023-07-20T00:24:13;100597.69;;;22.82
78961;BMP280;68362;45.970;12.646;2023-07-20T00:25:15;100599.72;;;22.77
78961;BMP280;68362;45.970;12.646;2023-07-20T00:26:18;100585.66;;;22.71
78961;BMP280;68362;45.970;12.646;2023-07-20T00:27:20;100586.97;;;22.51
78961;BMP280;68362;45.970;12.646;2023-07-20T00:28:22;100583.78;;;22.72
78961;BMP280;68362;45.970;12.646;2023-07-20T00:29:24;100578.38;;;22.63
78961;BMP280;68362;45.970;12.646;2023-07-20T00:30:26;100583.03;;;22.49
78961;BMP280;68362;45.970;12.646;2023-07-20T00:31:28;100579.19;;;22.64
78961;BMP280;68362;45.970;12.646;2023-07-20T00:32:31;100576.31;;;22.91
78961;BMP280;68362;45.970;12.646;2023-07-20T00:33:33;100578.22;;;22.99
78961;BMP280;68362;45.970;12.646;2023-07-20T00:34:35;100571.16;;;23.03
78961;BMP280;68362;45.970;12.646;2023-07-20T00:35:38;100568.66;;;23.07
78961;BMP280;68362;45.970;12.646;2023-07-20T00:36:40;100564.03;;;22.99
78961;BMP280;68362;45.970;12.646;2023-07-20T00:37:43;100570.44;;;22.80
78961;BMP280;68362;45.970;12.646;2023-07-20T00:38:45;100572.09;;;22.68
78961;BMP280;68362;45.970;12.646;2023-07-20T00:39:48;100578.53;;;22.98
78961;BMP280;68362;45.970;12.646;2023-07-20T00:40:50;100577.47;;;22.68
78961;BMP280;68362;45.970;12.646;2023-07-20T00:41:52;100571.56;;;22.26
78961;BMP280;68362;45.970;12.646;2023-07-20T00:42:54;100578.78;;;22.48
78961;BMP280;68362;45.970;12.646;2023-07-20T00:43:56;100573.44;;;22.26
78961;BMP280;68362;45.970;12.646;2023-07-20T00:44:58;100573.31;;;22.53
78961;BMP280;68362;45.970;12.646;2023-07-20T00:46:00;100569.16;;;22.47
78961;BMP280;68362;45.970;12.646;2023-07-20T00:47:05;100563.69;;;22.52
78961;BMP280;68362;45.970;12.646;2023-07-20T00:48:08;100562.94;;;22.60
78961;BMP280;68362;45.970;12.646;2023-07-20T00:49:10;100553.16;;;22.64
78961;BMP280;68362;45.970;12.646;2023-07-20T00:50:12;100549.56;;;22.60
78961;BMP280;68362;45.970;12.646;2023-07-20T00:51:15;100545.66;;;22.66
78961;BMP280;68362;45.970;12.646;2023-07-20T00:52:19;100544.94;;;22.52
78961;BMP280;68362;45.970;12.646;2023-07-20T00:53:22;100537.63;;;22.66
78961;BMP280;68362;45.970;12.646;2023-07-20T00:54:24;100542.25;;;22.74
78961;BMP280;68362;45.970;12.646;2023-07-20T00:55:28;100543.38;;;22.51
78961;BMP280;68362;45.970;12.646;2023-07-20T00:56:30;100535.00;;;22.44
78961;BMP280;68362;45.970;12.646;2023-07-20T00:57:32;100535.84;;;22.53
78961;BMP280;68362;45.970;12.646;2023-07-20T00:58:35;100538.19;;;22.54
78961;BMP280;68362;45.970;12.646;2023-07-20T00:59:37;100531.47;;;22.66
78961;BMP280;68362;45.970;12.646;2023-07-20T01:00:39;100537.44;;;22.32
78961;BMP280;68362;45.970;12.646;2023-07-20T01:01:42;100538.94;;;22.15
78961;BMP280;68362;45.970;12.646;2023-07-20T01:02:45;100547.47;;;21.81
78961;BMP280;68362;45.970;12.646;2023-07-20T01:03:48;100548.84;;;21.79
78961;BMP280;68362;45.970;12.646;2023-07-20T01:04:50;100549.56;;;21.84
78961;BMP280;68362;45.970;12.646;2023-07-20T01:06:26;100540.44;;;22.08
78961;BMP280;68362;45.970;12.646;2023-07-20T01:07:35;100539.09;;;22.41
78961;BMP280;68362;45.970;12.646;2023-07-20T01:09:08;100533.28;;;22.48
78961;BMP280;68362;45.970;12.646;2023-07-20T01:10:39;100527.81;;;22.53
78961;BMP280;68362;45.970;12.646;2023-07-20T01:12:01;100533.00;;;22.58
78961;BMP280;68362;45.970;12.646;2023-07-20T01:13:07;100537.97;;;22.73
78961;BMP280;68362;45.970;12.646;2023-07-20T01:14:10;100540.63;;;22.73
78961;BMP280;68362;45.970;12.646;2023-07-20T01:15:14;100543.06;;;22.83
78961;BMP280;68362;45.970;12.646;2023-07-20T01:16:16;100553.78;;;22.61
78961;BMP280;68362;45.970;12.646;2023-07-20T01:17:18;100556.34;;;22.35
78961;BMP280;68362;45.970;12.646;2023-07-20T01:18:20;100563.41;;;22.53
78961;BMP280;68362;45.970;12.646;2023-07-20T01:19:23;100571.91;;;22.11
78961;BMP280;68362;45.970;12.646;2023-07-20T01:20:25;100569.63;;;21.96
78961;BMP280;68362;45.970;12.646;2023-07-20T01:22:02;100571.72;;;21.85
78961;BMP280;68362;45.970;12.646;2023-07-20T01:23:31;100564.00;;;22.28
78961;BMP280;68362;45.970;12.646;2023-07-20T01:25:13;100558.13;;;22.40
78961;BMP280;68362;45.970;12.646;2023-07-20T01:29:41;100560.28;;;22.38
78961;BMP280;68362;45.970;12.646;2023-07-20T01:31:13;100564.44;;;22.44
78961;BMP280;68362;45.970;12.646;2023-07-20T01:32:17;100557.53;;;22.51
78961;BMP280;68362;45.970;12.646;2023-07-20T01:33:20;100560.09;;;22.34
78961;BMP280;68362;45.970;12.646;2023-07-20T01:34:24;100565.38;;;22.03
78961;BMP280;68362;45.970;12.646;2023-07-20T01:35:29;100570.13;;;21.84
78961;BMP280;68362;45.970;12.646;2023-07-20T01:36:34;100570.13;;;21.84
78961;BMP280;68362;45.970;12.646;2023-07-20T01:37:38;100577.06;;;21.85
78961;BMP280;68362;45.970;12.646;2023-07-20T01:38:40;100582.72;;;21.83
78961;BMP280;68362;45.970;12.646;2023-07-20T01:39:43;100583.53;;;21.70
78961;BMP280;68362;45.970;12.646;2023-07-20T01:40:45;100589.06;;;21.74
78961;BMP280;68362;45.970;12.646;2023-07-20T01:41:48;100585.13;;;21.57
78961;BMP280;68362;45.970;12.646;2023-07-20T01:42:51;100585.56;;;21.37
78961;BMP280;68362;45.970;12.646;2023-07-20T01:43:57;100584.75;;;21.23
78961;BMP280;68362;45.970;12.646;2023-07-20T01:45:00;100578.31;;;21.51
78961;BMP280;68362;45.970;12.646;2023-07-20T01:46:02;100575.66;;;21.38
78961;BMP280;68362;45.970;12.646;2023-07-20T01:47:04;100570.06;;;21.61
78961;BMP280;68362;45.970;12.646;2023-07-20T01:48:06;100568.31;;;21.43
78961;BMP280;68362;45.970;12.646;2023-07-20T01:49:09;100561.78;;;21.63
78961;BMP280;68362;45.970;12.646;2023-07-20T01:50:11;100561.00;;;21.63
78961;BMP280;68362;45.970;12.646;2023-07-20T01:51:13;100557.84;;;21.60
78961;BMP280;68362;45.970;12.646;2023-07-20T01:52:16;100559.44;;;21.84
78961;BMP280;68362;45.970;12.646;2023-07-20T01:53:18;100557.19;;;21.77
78961;BMP280;68362;45.970;12.646;2023-07-20T01:54:20;100554.94;;;21.93
78961;BMP280;68362;45.970;12.646;2023-07-20T01:55:23;100551.50;;;21.56
78961;BMP280;68362;45.970;12.646;2023-07-20T01:56:25;100558.19;;;21.81
78961;BMP280;68362;45.970;12.646;2023-07-20T01:57:27;100555.31;;;21.78
78961;BMP280;68362;45.970;12.646;2023-07-20T01:58:29;100558.94;;;21.82
78961;BMP280;68362;45.970;12.646;2023-07-20T01:59:31;100562.59;;;21.50
78961;BMP280;68362;45.970;12.646;2023-07-20T02:00:37;100564.88;;;21.29
78961;BMP280;68362;45.970;12.646;2023-07-20T02:01:39;100562.19;;;21.29
78961;BMP280;68362;45.970;12.646;2023-07-20T02:02:41;100561.69;;;21.54
78961;BMP280;68362;45.970;12.646;2023-07-20T02:03:44;100558.41;;;21.71
78961;BMP280;68362;45.970;12.646;2023-07-20T02:04:46;100557.94;;;21.91
78961;BMP280;68362;45.970;12.646;2023-07-20T02:05:48;100562.25;;;22.01
78961;BMP280;68362;45.970;12.646;2023-07-20T02:06:50;100564.13;;;21.78
78961;BMP280;68362;45.970;12.646;2023-07-20T02:07:52;100565.91;;;21.69
78961;BMP280;68362;45.970;12.646;2023-07-20T02:08:55;100560.94;;;21.76
78961;BMP280;68362;45.970;12.646;2023-07-20T02:09:57;100568.84;;;21.95
78961;BMP280;68362;45.970;12.646;2023-07-20T02:10:59;100572.34;;;22.04
78961;BMP280;68362;45.970;12.646;2023-07-20T02:12:01;100565.50;;;22.20
78961;BMP280;68362;45.970;12.646;2023-07-20T02:13:03;100564.69;;;22.11
78961;BMP280;68362;45.970;12.646;2023-07-20T02:14:05;100567.00;;;22.04
78961;BMP280;68362;45.970;12.646;2023-07-20T02:15:07;100559.81;;;22.13
78961;BMP280;68362;45.970;12.646;2023-07-20T02:16:10;100566.88;;;22.32
78961;BMP280;68362;45.970;12.646;2023-07-20T02:17:13;100562.06;;;22.42
78961;BMP280;68362;45.970;12.646;2023-07-20T02:18:15;100563.91;;;22.33
78961;BMP280;68362;45.970;12.646;2023-07-20T02:19:18;100562.41;;;22.49
78961;BMP280;68362;45.970;12.646;2023-07-20T02:20:20;100563.88;;;22.64
78961;BMP280;68362;45.970;12.646;2023-07-20T02:21:23;100553.72;;;22.75
78961;BMP280;68362;45.970;12.646;2023-07-20T02:22:25;100555.91;;;22.73
78961;BMP280;68362;45.970;12.646;2023-07-20T02:23:27;100552.94;;;22.74
78961;BMP280;68362;45.970;12.646;2023-07-20T02:24:29;100552.34;;;22.77
78961;BMP280;68362;45.970;12.646;2023-07-20T02:25:31;100559.56;;;22.77
78961;BMP280;68362;45.970;12.646;2023-07-20T02:26:33;100550.47;;;22.87
78961;BMP280;68362;45.970;12.646;2023-07-20T02:27:36;100557.53;;;22.82
78961;BMP280;68362;45.970;12.646;2023-07-20T02:28:38;100555.03;;;22.55
78961;BMP280;68362;45.970;12.646;2023-07-20T02:29:41;100558.91;;;22.40
78961;BMP280;68362;45.970;12.646;2023-07-20T02:30:43;100560.00;;;22.17
78961;BMP280;68362;45.970;12.646;2023-07-20T02:31:45;100563.19;;;22.19
78961;BMP280;68362;45.970;12.646;2023-07-20T02:32:47;100573.59;;;21.84
78961;BMP280;68362;45.970;12.646;2023-07-20T02:33:51;100571.00;;;21.93
78961;BMP280;68362;45.970;12.646;2023-07-20T02:34:53;100573.50;;;21.76
78961;BMP280;68362;45.970;12.646;2023-07-20T02:35:55;100562.94;;;21.71
78961;BMP280;68362;45.970;12.646;2023-07-20T02:36:57;100569.00;;;21.63
78961;BMP280;68362;45.970;12.646;2023-07-20T02:38:01;100567.41;;;21.61
78961;BMP280;68362;45.970;12.646;2023-07-20T02:39:03;100564.03;;;21.70
78961;BMP280;68362;45.970;12.646;2023-07-20T02:40:06;100561.50;;;21.87
78961;BMP280;68362;45.970;12.646;2023-07-20T02:41:09;100566.00;;;22.00
78961;BMP280;68362;45.970;12.646;2023-07-20T02:42:11;100567.72;;;21.96
78961;BMP280;68362;45.970;12.646;2023-07-20T02:43:13;100563.41;;;22.09
78961;BMP280;68362;45.970;12.646;2023-07-20T02:44:15;100562.09;;;21.98
78961;BMP280;68362;45.970;12.646;2023-07-20T02:45:18;100567.22;;;21.94
78961;BMP280;68362;45.970;12.646;2023-07-20T02:46:20;100559.94;;;22.08
78961;BMP280;68362;45.970;12.646;2023-07-20T02:47:23;100562.06;;;22.20
78961;BMP280;68362;45.970;12.646;2023-07-20T02:48:25;100560.78;;;22.17
78961;BMP280;68362;45.970;12.646;2023-07-20T02:49:27;100560.69;;;22.22
78961;BMP280;68362;45.970;12.646;2023-07-20T02:50:30;100567.78;;;22.05
78961;BMP280;68362;45.970;12.646;2023-07-20T02:51:32;100559.63;;;22.10
78961;BMP280;68362;45.970;12.646;2023-07-20T02:52:34;100566.00;;;21.78
78961;BMP280;68362;45.970;12.646;2023-07-20T02:53:36;100564.28;;;21.82
78961;BMP280;68362;45.970;12.646;2023-07-20T02:54:38;100564.78;;;21.84
78961;BMP280;68362;45.970;12.646;2023-07-20T02:55:40;100564.09;;;21.92
78961;BMP280;68362;45.970;12.646;2023-07-20T02:56:42;100556.22;;;22.09
78961;BMP280;68362;45.970;12.646;2023-07-20T02:57:44;100558.28;;;22.12
78961;BMP280;68362;45.970;12.646;2023-07-20T02:58:47;100551.88;;;22.22
78961;BMP280;68362;45.970;12.646;2023-07-20T02:59:49;100555.19;;;22.28
78961;BMP280;68362;45.970;12.646;2023-07-20T03:00:51;100555.72;;;22.38
78961;BMP280;68362;45.970;12.646;2023-07-20T03:01:53;100552.25;;;22.38
78961;BMP280;68362;45.970;12.646;2023-07-20T03:02:56;100560.63;;;22.36
78961;BMP280;68362;45.970;12.646;2023-07-20T03:03:58;100554.53;;;22.44
78961;BMP280;68362;45.970;12.646;2023-07-20T03:05:01;100562.59;;;22.53
78961;BMP280;68362;45.970;12.646;2023-07-20T03:06:05;100556.22;;;22.09
78961;BMP280;68362;45.970;12.646;2023-07-20T03:07:07;100565.69;;;22.15
78961;BMP280;68362;45.970;12.646;2023-07-20T03:08:09;100570.75;;;22.26
78961;BMP280;68362;45.970;12.646;2023-07-20T03:09:12;100568.09;;;22.26
78961;BMP280;68362;45.970;12.646;2023-07-20T03:10:14;100579.56;;;22.48
78961;BMP280;68362;45.970;12.646;2023-07-20T03:11:17;100585.09;;;22.07
78961;BMP280;68362;45.970;12.646;2023-07-20T03:12:19;100579.63;;;21.90
78961;BMP280;68362;45.970;12.646;2023-07-20T03:13:21;100583.19;;;22.21
78961;BMP280;68362;45.970;12.646;2023-07-20T03:14:23;100579.56;;;22.26
78961;BMP280;68362;45.970;12.646;2023-07-20T03:15:26;100581.38;;;22.17
78961;BMP280;68362;45.970;12.646;2023-07-20T03:16:28;100589.34;;;22.08
78961;BMP280;68362;45.970;12.646;2023-07-20T03:17:30;100587.34;;;22.14
78961;BMP280;68362;45.970;12.646;2023-07-20T03:18:32;100589.84;;;22.10
78961;BMP280;68362;45.970;12.646;2023-07-20T03:19:34;100584.09;;;21.95
78961;BMP280;68362;45.970;12.646;2023-07-20T03:20:36;100589.88;;;21.97
78961;BMP280;68362;45.970;12.646;2023-07-20T03:21:38;100597.53;;;21.89
78961;BMP280;68362;45.970;12.646;2023-07-20T03:22:43;100594.09;;;22.11
78961;BMP280;68362;45.970;12.646;2023-07-20T03:23:45;100589.88;;;21.33
78961;BMP280;68362;45.970;12.646;2023-07-20T03:24:48;100593.25;;;21.52
78961;BMP280;68362;45.970;12.646;2023-07-20T03:25:50;100591.28;;;21.44
78961;BMP280;68362;45.970;12.646;2023-07-20T03:26:52;100591.56;;;21.29
78961;BMP280;68362;45.970;12.646;2023-07-20T03:27:54;100595.63;;;21.68
78961;BMP280;68362;45.970;12.646;2023-07-20T03:28:56;100591.00;;;21.82
78961;BMP280;68362;45.970;12.646;2023-07-20T03:29:58;100589.34;;;22.08
78961;BMP280;68362;45.970;12.646;2023-07-20T03:31:01;100594.09;;;22.11
78961;BMP280;68362;45.970;12.646;2023-07-20T03:32:03;100592.34;;;22.29
78961;BMP280;68362;45.970;12.646;2023-07-20T03:33:06;100594.97;;;22.43
78961;BMP280;68362;45.970;12.646;2023-07-20T03:34:14;100589.94;;;22.50
78961;BMP280;68362;45.970;12.646;2023-07-20T03:35:17;100587.03;;;22.38
78961;BMP280;68362;45.970;12.646;2023-07-20T03:36:19;100580.47;;;22.44
78961;BMP280;68362;45.970;12.646;2023-07-20T03:37:22;100591.09;;;22.58
78961;BMP280;68362;45.970;12.646;2023-07-20T03:40:57;100597.94;;;22.72
78961;BMP280;68362;45.970;12.646;2023-07-20T03:41:59;100589.81;;;22.55
78961;BMP280;68362;45.970;12.646;2023-07-20T03:43:01;100587.91;;;22.25
78961;BMP280;68362;45.970;12.646;2023-07-20T03:44:04;100587.41;;;22.45
78961;BMP280;68362;45.970;12.646;2023-07-20T03:45:06;100581.78;;;22.55
78961;BMP280;68362;45.970;12.646;2023-07-20T03:46:10;100584.34;;;22.60
78961;BMP280;68362;45.970;12.646;2023-07-20T03:47:12;100576.00;;;22.62
78961;BMP280;68362;45.970;12.646;2023-07-20T03:48:20;100578.03;;;22.56
78961;BMP280;68362;45.970;12.646;2023-07-20T03:49:23;100586.78;;;22.03
78961;BMP280;68362;45.970;12.646;2023-07-20T03:50:26;100573.19;;;21.91
78961;BMP280;68362;45.970;12.646;2023-07-20T03:51:35;100581.16;;;22.27
78961;BMP280;68362;45.970;12.646;2023-07-20T03:52:42;100579.38;;;22.45
78961;BMP280;68362;45.970;12.646;2023-07-20T03:53:44;100583.25;;;22.30
78961;BMP280;68362;45.970;12.646;2023-07-20T03:54:46;100579.50;;;22.17
78961;BMP280;68362;45.970;12.646;2023-07-20T03:55:50;100569.59;;;22.40
78961;BMP280;68362;45.970;12.646;2023-07-20T03:56:53;100574.16;;;22.40
78961;BMP280;68362;45.970;12.646;2023-07-20T03:58:04;100575.81;;;22.58
78961;BMP280;68362;45.970;12.646;2023-07-20T03:59:06;100577.94;;;22.39
78961;BMP280;68362;45.970;12.646;2023-07-20T04:00:09;100578.13;;;22.42
78961;BMP280;68362;45.970;12.646;2023-07-20T04:01:11;100577.19;;;22.47
78961;BMP280;68362;45.970;12.646;2023-07-20T04:02:15;100575.19;;;22.61
78961;BMP280;68362;45.970;12.646;2023-07-20T04:03:20;100573.22;;;22.67
78961;BMP280;68362;45.970;12.646;2023-07-20T04:04:22;100586.91;;;22.65
78961;BMP280;68362;45.970;12.646;2023-07-20T04:06:30;100587.78;;;22.92
78961;BMP280;68362;45.970;12.646;2023-07-20T04:07:36;100580.72;;;22.96
78961;BMP280;68362;45.970;12.646;2023-07-20T04:08:38;100582.16;;;23.02
78961;BMP280;68362;45.970;12.646;2023-07-20T04:09:40;100583.53;;;22.91
78961;BMP280;68362;45.970;12.646;2023-07-20T04:10:45;100581.41;;;22.70
78961;BMP280;68362;45.970;12.646;2023-07-20T04:11:47;100584.53;;;22.64
78961;BMP280;68362;45.970;12.646;2023-07-20T04:12:49;100584.53;;;22.64
78961;BMP280;68362;45.970;12.646;2023-07-20T04:13:51;100586.16;;;22.82
78961;BMP280;68362;45.970;12.646;2023-07-20T04:14:54;100589.84;;;22.95
78961;BMP280;68362;45.970;12.646;2023-07-20T04:15:56;100594.91;;;23.05
78961;BMP280;68362;45.970;12.646;2023-07-20T04:16:58;100590.66;;;22.95
78961;BMP280;68362;45.970;12.646;2023-07-20T04:18:02;100595.78;;;22.74
78961;BMP280;68362;45.970;12.646;2023-07-20T04:19:07;100597.22;;;22.80
78961;BMP280;68362;45.970;12.646;2023-07-20T04:20:25;100595.16;;;22.77
78961;BMP280;68362;45.970;12.646;2023-07-20T04:21:28;100594.91;;;22.96
78961;BMP280;68362;45.970;12.646;2023-07-20T04:22:30;100598.84;;;22.99
78961;BMP280;68362;45.970;12.646;2023-07-20T04:23:32;100594.09;;;22.87
78961;BMP280;68362;45.970;12.646;2023-07-20T04:24:34;100599.75;;;22.86
78961;BMP280;68362;45.970;12.646;2023-07-20T04:25:39;100602.59;;;22.58
78961;BMP280;68362;45.970;12.646;2023-07-20T04:26:41;100595.16;;;22.55
78961;BMP280;68362;45.970;12.646;2023-07-20T04:27:43;100595.84;;;22.30
78961;BMP280;68362;45.970;12.646;2023-07-20T04:28:45;100598.47;;;22.52
78961;BMP280;68362;45.970;12.646;2023-07-20T04:29:48;100602.97;;;22.65
78961;BMP280;68362;45.970;12.646;2023-07-20T04:30:52;100596.00;;;22.64
78961;BMP280;68362;45.970;12.646;2023-07-20T04:31:54;100605.25;;;22.80
78961;BMP280;68362;45.970;12.646;2023-07-20T04:32:56;100600.81;;;22.84
78961;BMP280;68362;45.970;12.646;2023-07-20T04:33:59;100601.34;;;22.64
78961;BMP280;68362;45.970;12.646;2023-07-20T04:35:06;100609.63;;;22.76
78961;BMP280;68362;45.970;12.646;2023-07-20T04:36:09;100611.41;;;22.90
78961;BMP280;68362;45.970;12.646;2023-07-20T04:37:11;100608.16;;;22.70
78961;BMP280;68362;45.970;12.646;2023-07-20T04:38:14;100620.63;;;22.75
78961;BMP280;68362;45.970;12.646;2023-07-20T04:39:19;100611.66;;;22.71
78961;BMP280;68362;45.970;12.646;2023-07-20T04:40:32;100616.69;;;22.72
78961;BMP280;68362;45.970;12.646;2023-07-20T04:41:34;100618.56;;;22.72
78961;BMP280;68362;45.970;12.646;2023-07-20T04:42:37;100617.50;;;22.81
78961;BMP280;68362;45.970;12.646;2023-07-20T04:43:42;100620.41;;;22.94
78961;BMP280;68362;45.970;12.646;2023-07-20T04:44:45;100623.66;;;22.82
78961;BMP280;68362;45.970;12.646;2023-07-20T04:45:47;100618.00;;;22.83
78961;BMP280;68362;45.970;12.646;2023-07-20T04:46:49;100626.38;;;22.91
78961;BMP280;68362;45.970;12.646;2023-07-20T04:47:52;100626.28;;;22.73
78961;BMP280;68362;45.970;12.646;2023-07-20T04:48:54;100623.03;;;22.76
78961;BMP280;68362;45.970;12.646;2023-07-20T04:49:56;100618.75;;;22.75
78961;BMP280;68362;45.970;12.646;2023-07-20T04:50:58;100624.38;;;22.65
78961;BMP280;68362;45.970;12.646;2023-07-20T04:52:00;100628.09;;;22.33
78961;BMP280;68362;45.970;12.646;2023-07-20T04:53:04;100629.00;;;21.92
78961;BMP280;68362;45.970;12.646;2023-07-20T04:54:06;100626.38;;;21.65
78961;BMP280;68362;45.970;12.646;2023-07-20T04:55:09;100625.31;;;21.52
78961;BMP280;68362;45.970;12.646;2023-07-20T04:56:11;100632.53;;;21.66
78961;BMP280;68362;45.970;12.646;2023-07-20T04:57:13;100634.00;;;21.44
78961;BMP280;68362;45.970;12.646;2023-07-20T04:58:15;100632.25;;;21.53
78961;BMP280;68362;45.970;12.646;2023-07-20T04:59:17;100637.59;;;21.53
78961;BMP280;68362;45.970;12.646;2023-07-20T05:00:20;100638.19;;;21.37
78961;BMP280;68362;45.970;12.646;2023-07-20T05:01:23;100629.97;;;21.19
78961;BMP280;68362;45.970;12.646;2023-07-20T05:02:25;100637.28;;;21.14
78961;BMP280;68362;45.970;12.646;2023-07-20T05:03:27;100635.66;;;20.99
78961;BMP280;68362;45.970;12.646;2023-07-20T05:04:30;100638.22;;;20.90
78961;BMP280;68362;45.970;12.646;2023-07-20T05:05:39;100645.06;;;20.96
78961;BMP280;68362;45.970;12.646;2023-07-20T05:06:41;100642.28;;;21.01
78961;BMP280;68362;45.970;12.646;2023-07-20T05:07:44;100645.72;;;20.88
78961;BMP280;68362;45.970;12.646;2023-07-20T05:08:47;100645.06;;;20.96
78961;BMP280;68362;45.970;12.646;2023-07-20T05:09:49;100639.84;;;20.86
78961;BMP280;68362;45.970;12.646;2023-07-20T05:10:51;100644.66;;;20.89
78961;BMP280;68362;45.970;12.646;2023-07-20T05:11:53;100652.53;;;20.94
78961;BMP280;68362;45.970;12.646;2023-07-20T05:12:55;100649.28;;;20.97
78961;BMP280;68362;45.970;12.646;2023-07-20T05:13:57;100649.03;;;20.80
78961;BMP280;68362;45.970;12.646;2023-07-20T05:15:00;100655.09;;;20.86
78961;BMP280;68362;45.970;12.646;2023-07-20T05:16:02;100654.38;;;20.80
78961;BMP280;68362;45.970;12.646;2023-07-20T05:17:04;100661.19;;;20.86
78961;BMP280;68362;45.970;12.646;2023-07-20T05:18:07;100657.19;;;20.89
78961;BMP280;68362;45.970;12.646;2023-07-20T05:19:09;100658.88;;;20.85
78961;BMP280;68362;45.970;12.646;2023-07-20T05:20:12;100662.63;;;20.97
78961;BMP280;68362;45.970;12.646;2023-07-20T05:21:14;100660.88;;;21.07
78961;BMP280;68362;45.970;12.646;2023-07-20T05:22:16;100667.38;;;21.00
78961;BMP280;68362;45.970;12.646;2023-07-20T05:23:18;100656.34;;;21.21
78961;BMP280;68362;45.970;12.646;2023-07-20T05:24:23;100662.72;;;21.25
78961;BMP280;68362;45.970;12.646;2023-07-20T05:25:25;100656.88;;;21.37
78961;BMP280;68362;45.970;12.646;2023-07-20T05:26:31;100652.84;;;21.39
78961;BMP280;68362;45.970;12.646;2023-07-20T05:27:36;100657.06;;;21.40
78961;BMP280;68362;45.970;12.646;2023-07-20T05:28:39;100658.56;;;21.32
78961;BMP280;68362;45.970;12.646;2023-07-20T05:29:45;100657.97;;;21.36
78961;BMP280;68362;45.970;12.646;2023-07-20T05:30:47;100656.38;;;21.48
78961;BMP280;68362;45.970;12.646;2023-07-20T05:31:52;100655.59;;;21.48
78961;BMP280;68362;45.970;12.646;2023-07-20T05:32:54;100664.78;;;21.55
78961;BMP280;68362;45.970;12.646;2023-07-20T05:33:56;100665.84;;;21.82
78961;BMP280;68362;45.970;12.646;2023-07-20T05:34:59;100670.41;;;21.95
78961;BMP280;68362;45.970;12.646;2023-07-20T05:36:01;100670.25;;;22.00
78961;BMP280;68362;45.970;12.646;2023-07-20T05:37:03;100672.84;;;22.05
78961;BMP280;68362;45.970;12.646;2023-07-20T05:38:05;100672.66;;;22.15
78961;BMP280;68362;45.970;12.646;2023-07-20T05:39:08;100674.84;;;22.36
78961;BMP280;68362;45.970;12.646;2023-07-20T05:40:10;100676.78;;;22.44
78961;BMP280;68362;45.970;12.646;2023-07-20T05:41:14;100673.50;;;22.69
78961;BMP280;68362;45.970;12.646;2023-07-20T05:42:16;100672.28;;;22.75
78961;BMP280;68362;45.970;12.646;2023-07-20T05:43:18;100673.53;;;22.78
78961;BMP280;68362;45.970;12.646;2023-07-20T05:44:20;100671.13;;;22.99
78961;BMP280;68362;45.970;12.646;2023-07-20T05:45:23;100670.88;;;23.09
78961;BMP280;68362;45.970;12.646;2023-07-20T05:46:25;100672.38;;;22.93
78961;BMP280;68362;45.970;12.646;2023-07-20T05:47:34;100675.06;;;22.93
78961;BMP280;68362;45.970;12.646;2023-07-20T05:48:36;100670.84;;;22.47
78961;BMP280;68362;45.970;12.646;2023-07-20T05:49:39;100675.91;;;22.35
78961;BMP280;68362;45.970;12.646;2023-07-20T05:50:44;100668.94;;;22.70
78961;BMP280;68362;45.970;12.646;2023-07-20T05:51:46;100674.13;;;22.66
78961;BMP280;68362;45.970;12.646;2023-07-20T05:52:48;100666.84;;;22.89
78961;BMP280;68362;45.970;12.646;2023-07-20T05:53:51;100666.78;;;23.03
78961;BMP280;68362;45.970;12.646;2023-07-20T05:54:53;100664.22;;;22.98
78961;BMP280;68362;45.970;12.646;2023-07-20T05:55:55;100669.28;;;23.08
78961;BMP280;68362;45.970;12.646;2023-07-20T05:56:59;100669.66;;;23.15
78961;BMP280;68362;45.970;12.646;2023-07-20T05:58:01;100667.19;;;22.96
78961;BMP280;68362;45.970;12.646;2023-07-20T05:59:03;100664.91;;;23.12
78961;BMP280;68362;45.970;12.646;2023-07-20T06:00:06;100661.03;;;23.27
78961;BMP280;68362;45.970;12.646;2023-07-20T06:01:08;100661.94;;;23.22
78961;BMP280;68362;45.970;12.646;2023-07-20T06:02:11;100658.16;;;23.23
78961;BMP280;68362;45.970;12.646;2023-07-20T06:03:13;100662.84;;;23.09